Time;durP1;ratioP1;P1;durP2;ratioP2;P2;SDS_P1;SDS_P2;PMS_P1;PMS_P2;Temp;Humidity;BMP_temperature;BMP_pressure;BME280_temperature;BME280_humidity;BME280_pressure;Samples;Min_cycle;Max_cycle;Signal;HPM_P1;HPM_P2
2022/02/15 00:00:45;;;;;;;;;;;;;;;-4.34;100.00;99991.73;1684700;84;21151;-71
2022/02/15 00:03:11;;;;;;;;;;;;;;;-4.34;100.00;99984.69;1687400;83;20151;-69
2022/02/15 00:05:38;;;;;;;;;;;;;;;-4.38;100.00;99991.70;1676163;83;20178;-68
2022/02/15 00:08:04;;;;;;;;;;;;;;;-4.45;100.00;99981.47;1684826;84;20106;-70
2022/02/15 00:10:31;;;;;;;;;;;;;;;-4.39;100.00;99983.48;1674090;84;20209;-70
2022/02/15 00:12:57;;;;;;;;;;;;;;;-4.36;100.00;99984.03;1666569;84;21231;-68
2022/02/15 00:15:25;;;;;;;;;;;;;;;-4.29;100.00;99986.05;1664958;84;20135;-72
2022/02/15 00:17:52;;;;;;;;;;;;;;;-4.27;100.00;99982.80;1663424;83;20144;-70
2022/02/15 00:20:20;;;;;;;;;;;;;;;-4.29;100.00;99986.05;1668561;84;20149;-69
2022/02/15 00:22:47;;;;;;;;;;;;;;;-4.33;100.00;99988.98;1670812;84;20141;-69
2022/02/15 00:25:13;;;;;;;;;;;;;;;-4.31;100.00;99978.36;1684076;84;21743;-70
2022/02/15 00:27:40;;;;;;;;;;;;;;;-4.23;100.00;99981.55;1679864;84;20505;-73
2022/02/15 00:30:08;;;;;;;;;;;;;;;-4.21;100.00;99982.23;1687692;83;20149;-72
2022/02/15 00:32:37;;;;;;;;;;;;;;;-4.24;100.00;99968.91;1673082;84;20177;-70
2022/02/15 00:35:05;;;;;;;;;;;;;;;-4.26;100.00;99968.72;1682187;84;20142;-70
2022/02/15 00:37:32;;;;;;;;;;;;;;;-4.30;100.00;99968.20;1687436;84;21151;-71
2022/02/15 00:39:58;;;;;;;;;;;;;;;-4.30;100.00;99966.89;1689025;84;20118;-70
2022/02/15 00:42:25;;;;;;;;;;;;;;;-4.26;100.00;99958.23;1666782;84;20200;-69
2022/02/15 00:44:52;;;;;;;;;;;;;;;-4.19;100.00;99956.20;1679760;84;20148;-71
2022/02/15 00:47:20;;;;;;;;;;;;;;;-4.16;100.00;99950.66;1686962;84;20128;-69
2022/02/15 00:49:46;;;;;;;;;;;;;;;-4.14;100.00;99951.80;1675355;83;21073;-71
2022/02/15 00:52:16;;;;;;;;;;;;;;;-4.17;100.00;99944.23;1668079;84;20230;-72
2022/02/15 00:54:43;;;;;;;;;;;;;;;-4.18;100.00;99946.05;1679683;84;20102;-71
2022/02/15 00:57:15;;;;;;;;;;;;;;;-4.18;100.00;99943.42;1672537;83;20139;-70
2022/02/15 00:59:51;;;;;;;;;;;;;;;-4.15;100.00;99948.85;1681436;83;20161;-68
2022/02/15 01:02:19;;;;;;;;;;;;;;;-4.11;100.00;99952.34;1690933;83;21796;-72
2022/02/15 01:04:48;;;;;;;;;;;;;;;-4.05;100.00;99950.09;1712774;83;20428;-70
2022/02/15 01:10:56;;;;;;;;;;;;;;;-4.08;100.00;99938.60;1705997;83;20127;-69
2022/02/15 01:13:24;;;;;;;;;;;;;;;-4.17;100.00;99949.48;1694274;83;20181;-70
2022/02/15 01:15:51;;;;;;;;;;;;;;;-4.20;100.00;99951.09;1713148;83;21863;-70
2022/02/15 01:18:18;;;;;;;;;;;;;;;-4.18;100.00;99957.84;1694771;83;20128;-69
2022/02/15 01:20:46;;;;;;;;;;;;;;;-4.18;100.00;99951.78;1709976;83;20267;-71
2022/02/15 01:23:13;;;;;;;;;;;;;;;-4.19;100.00;99952.73;1715132;83;20403;-70
2022/02/15 01:25:41;;;;;;;;;;;;;;;-4.18;100.00;99953.09;1686609;83;20128;-70
2022/02/15 01:28:07;;;;;;;;;;;;;;;-4.18;100.00;99957.02;1715355;83;21209;-69
2022/02/15 01:30:36;;;;;;;;;;;;;;;-4.22;100.00;99953.04;1715351;83;20664;-69
2022/02/15 01:33:04;;;;;;;;;;;;;;;-4.21;100.00;99958.14;1690115;83;20100;-71
2022/02/15 01:35:32;;;;;;;;;;;;;;;-4.20;100.00;99958.47;1709752;83;21562;-69
2022/02/15 01:37:59;;;;;;;;;;;;;;;-4.19;100.00;99950.96;1686651;83;20418;-72
2022/02/15 01:40:26;;;;;;;;;;;;;;;-4.10;100.00;99950.53;1690844;83;21963;-71
2022/02/15 01:42:52;;;;;;;;;;;;;;;-4.20;100.00;99953.23;1715943;83;20101;-70
2022/02/15 01:45:20;;;;;;;;;;;;;;;-4.25;100.00;99946.30;1695355;83;20107;-72
2022/02/15 01:47:48;;;;;;;;;;;;;;;-4.32;100.00;99948.67;1711738;83;20153;-69
2022/02/15 01:50:20;;;;;;;;;;;;;;;-4.34;100.00;99945.87;1686740;83;20117;-70
2022/02/15 01:52:46;;;;;;;;;;;;;;;-4.34;100.00;99945.38;1699125;83;21121;-69
2022/02/15 01:55:14;;;;;;;;;;;;;;;-4.36;100.00;99941.25;1703719;83;20213;-70
2022/02/15 01:57:42;;;;;;;;;;;;;;;-4.34;100.00;99943.25;1686091;83;20124;-70
2022/02/15 02:00:14;;;;;;;;;;;;;;;-4.33;100.00;99938.36;1681189;83;20426;-71
2022/02/15 02:02:44;;;;;;;;;;;;;;;-4.33;100.00;99940.98;1684038;83;20124;-71
2022/02/15 02:08:01;;;;;;;;;;;;;;;-4.28;100.00;99937.92;1708763;83;20474;-68
2022/02/15 02:10:29;;;;;;;;;;;;;;;-4.32;100.00;99942.13;1713314;83;20116;-70
2022/02/15 02:12:57;;;;;;;;;;;;;;;-4.35;100.00;99937.68;1715665;83;20101;-70
2022/02/15 02:15:25;;;;;;;;;;;;;;;-4.35;100.00;99938.98;1713467;83;20431;-71
2022/02/15 02:18:10;;;;;;;;;;;;;;;-4.32;100.00;99938.69;1713320;83;20717;-70
2022/02/15 02:20:40;;;;;;;;;;;;;;;-4.29;100.00;99946.73;1705775;83;20426;-70
2022/02/15 02:23:10;;;;;;;;;;;;;;;-4.26;100.00;99937.27;1684193;83;20167;-70
2022/02/15 02:25:37;;;;;;;;;;;;;;;-4.24;100.00;99945.80;1683969;83;20127;-69
2022/02/15 02:28:04;;;;;;;;;;;;;;;-4.27;100.00;99946.92;1688130;83;20104;-70
2022/02/15 02:30:30;;;;;;;;;;;;;;;-4.31;100.00;99944.28;1713244;83;21164;-70
2022/02/15 02:32:59;;;;;;;;;;;;;;;-4.34;100.00;99943.25;1713226;83;20146;-71
2022/02/15 02:35:25;;;;;;;;;;;;;;;-4.41;100.00;99939.56;1707119;83;20430;-71
2022/02/15 02:37:52;;;;;;;;;;;;;;;-4.47;100.00;99939.68;1699898;83;20499;-70
2022/02/15 02:40:19;;;;;;;;;;;;;;;-4.55;100.00;99935.67;1699654;83;20144;-71
2022/02/15 02:42:46;;;;;;;;;;;;;;;-4.66;100.00;99942.41;1681868;85;21165;-70
2022/02/15 02:45:15;;;;;;;;;;;;;;;-4.65;100.00;99939.66;1681747;83;20112;-71
2022/02/15 02:47:43;;;;;;;;;;;;;;;-4.69;100.00;99926.98;1683597;83;20104;-70
2022/02/15 02:50:13;;;;;;;;;;;;;;;-4.74;100.00;99931.35;1683468;83;20117;-70
2022/02/15 02:52:39;;;;;;;;;;;;;;;-4.75;100.00;99934.46;1707440;83;20590;-72
2022/02/15 02:55:07;;;;;;;;;;;;;;;-4.71;100.00;99928.92;1702510;83;21207;-69
2022/02/15 02:57:35;;;;;;;;;;;;;;;-4.79;100.00;99934.89;1686443;83;20120;-69
2022/02/15 03:00:06;;;;;;;;;;;;;;;-4.86;100.00;99937.26;1707352;83;20648;-70
2022/02/15 03:02:35;;;;;;;;;;;;;;;-4.85;100.00;99935.00;1694858;83;20523;-71
2022/02/15 03:05:02;;;;;;;;;;;;;;;-4.83;100.00;99933.52;1705169;83;20125;-71
2022/02/15 03:07:29;;;;;;;;;;;;;;;-4.83;100.00;99934.83;1695974;83;21227;-71
2022/02/15 03:09:56;;;;;;;;;;;;;;;-4.90;100.00;99938.54;1700929;83;20490;-71
2022/02/15 03:12:23;;;;;;;;;;;;;;;-4.96;100.00;99929.44;1695556;83;20463;-72
2022/02/15 03:14:50;;;;;;;;;;;;;;;-4.97;100.00;99929.12;1706777;83;20113;-70
2022/02/15 03:17:17;;;;;;;;;;;;;;;-4.90;100.00;99924.59;1683993;83;20112;-70
2022/02/15 03:19:45;;;;;;;;;;;;;;;-4.87;100.00;99933.50;1690677;83;21162;-70
2022/02/15 03:22:12;;;;;;;;;;;;;;;-4.82;100.00;99927.34;1693132;83;20092;-71
2022/02/15 03:24:41;;;;;;;;;;;;;;;-4.80;100.00;99933.22;1695315;83;20430;-69
2022/02/15 03:27:08;;;;;;;;;;;;;;;-4.78;100.00;99929.52;1699008;83;20099;-70
2022/02/15 03:29:35;;;;;;;;;;;;;;;-4.78;100.00;99928.67;1692986;83;20164;-70
2022/02/15 03:32:02;;;;;;;;;;;;;;;-4.80;100.00;99927.53;1690827;83;21856;-71
2022/02/15 03:34:30;;;;;;;;;;;;;;;-4.76;100.00;99928.05;1705839;82;20103;-72
2022/02/15 03:36:57;;;;;;;;;;;;;;;-4.76;100.00;99929.36;1704463;83;20105;-71
2022/02/15 03:39:24;;;;;;;;;;;;;;;-4.82;100.00;99927.34;1708111;83;20105;-70
2022/02/15 03:44:37;;;;;;;;;;;;;;;-4.90;100.00;99927.22;1700362;82;21186;-71
2022/02/15 03:47:06;;;;;;;;;;;;;;;-5.00;100.00;99930.72;1694094;83;20210;-70
2022/02/15 03:49:36;;;;;;;;;;;;;;;-5.04;100.00;99922.81;1677923;83;20140;-69
2022/02/15 03:52:04;;;;;;;;;;;;;;;-5.08;100.00;99923.23;1693812;83;20117;-68
2022/02/15 03:54:30;;;;;;;;;;;;;;;-5.08;100.00;99922.74;1697248;83;20160;-71
2022/02/15 03:56:57;;;;;;;;;;;;;;;-5.11;100.00;99925.66;1691214;83;21152;-70
2022/02/15 03:59:25;;;;;;;;;;;;;;;-5.18;100.00;99925.89;1707052;83;20108;-71
2022/02/15 04:01:51;;;;;;;;;;;;;;;-5.29;100.00;99923.43;1710043;82;20437;-71
2022/02/15 04:04:18;;;;;;;;;;;;;;;-5.41;100.00;99918.38;1719303;81;20077;-71
2022/02/15 04:06:45;;;;;;;;;;;;;;;-5.53;100.00;99923.44;1686273;83;20457;-70
2022/02/15 04:09:11;;;;;;;;;;;;;;;-5.59;100.00;99922.68;1688925;84;21229;-70
2022/02/15 04:11:38;;;;;;;;;;;;;;;-5.56;100.00;99918.95;1650752;85;20100;-70
2022/02/15 04:14:06;;;;;;;;;;;;;;;-5.51;100.00;99924.13;1705807;82;20131;-71
2022/02/15 04:16:35;;;;;;;;;;;;;;;-5.46;100.00;99923.71;1703040;83;20119;-69
2022/02/15 04:19:03;;;;;;;;;;;;;;;-5.42;100.00;99927.18;1701600;83;20103;-72
2022/02/15 04:21:31;;;;;;;;;;;;;;;-5.47;100.00;99922.04;1710780;83;21161;-72
2022/02/15 04:24:00;;;;;;;;;;;;;;;-5.59;100.00;99926.60;1646796;84;20196;-71
2022/02/15 04:26:27;;;;;;;;;;;;;;;-5.60;100.00;99925.78;1661008;86;20509;-70
2022/02/15 04:28:54;;;;;;;;;;;;;;;-5.62;100.00;99930.81;1707659;83;20089;-70
2022/02/15 04:31:25;;;;;;;;;;;;;;;-5.62;100.00;99928.20;1717515;82;20205;-70
2022/02/15 04:33:52;;;;;;;;;;;;;;;-5.62;100.00;99927.71;1714034;83;22333;-71
2022/02/15 04:36:18;;;;;;;;;;;;;;;-5.64;100.00;99921.78;1709007;82;20113;-71
2022/02/15 04:38:47;;;;;;;;;;;;;;;-5.61;100.00;99930.69;1712304;82;20140;-70
2022/02/15 04:41:14;;;;;;;;;;;;;;;-5.60;100.00;99927.09;1713486;83;20102;-70
2022/02/15 04:43:41;;;;;;;;;;;;;;;-5.57;100.00;99930.40;1711219;83;20205;-70
2022/02/15 04:46:09;;;;;;;;;;;;;;;-5.57;100.00;99928.60;1725242;83;21164;-72
2022/02/15 04:48:36;;;;;;;;;;;;;;;-5.62;100.00;99931.63;1698722;82;20147;-71
2022/02/15 04:51:04;;;;;;;;;;;;;;;-5.63;100.00;99927.88;1713283;83;20430;-70
2022/02/15 04:53:32;;;;;;;;;;;;;;;-5.55;100.00;99931.09;1703550;83;20254;-72
2022/02/15 04:56:02;;;;;;;;;;;;;;;-5.51;100.00;99931.13;1723168;82;20158;-70
2022/02/15 04:58:30;;;;;;;;;;;;;;;-5.51;100.00;99928.52;1709677;83;21098;-71
2022/02/15 05:00:56;;;;;;;;;;;;;;;-5.55;100.00;99929.29;1703407;83;20179;-71
2022/02/15 05:03:25;;;;;;;;;;;;;;;-5.55;100.00;99938.94;1683506;83;20099;-71
2022/02/15 05:05:53;;;;;;;;;;;;;;;-5.57;100.00;99936.45;1716447;83;20096;-70
2022/02/15 05:08:21;;;;;;;;;;;;;;;-5.58;100.00;99937.42;1714822;83;20195;-71
2022/02/15 05:10:50;;;;;;;;;;;;;;;-5.63;100.00;99935.23;1695405;83;21245;-71
2022/02/15 05:13:16;;;;;;;;;;;;;;;-5.69;100.00;99935.77;1716559;83;20506;-71
2022/02/15 05:15:45;;;;;;;;;;;;;;;-5.78;100.00;99931.86;1704299;83;20091;-71
2022/02/15 05:18:19;;;;;;;;;;;;;;;-5.76;100.00;99940.39;1692918;83;20123;-70
2022/02/15 05:20:52;;;;;;;;;;;;;;;-5.70;100.00;99934.13;1728771;80;20460;-71
2022/02/15 05:23:19;;;;;;;;;;;;;;;-5.56;100.00;99941.19;1699805;81;21133;-73
2022/02/15 05:25:46;;;;;;;;;;;;;;;-5.54;100.00;99944.00;1694273;83;20198;-69
2022/02/15 05:28:32;;;;;;;;;;;;;;;-5.55;100.00;99941.06;1693544;83;20099;-70
2022/02/15 05:31:02;;;;;;;;;;;;;;;-5.58;100.00;99941.81;1715969;80;20146;-71
2022/02/15 05:33:31;;;;;;;;;;;;;;;-5.58;100.00;99946.58;1717235;82;20154;-69
2022/02/15 05:35:58;;;;;;;;;;;;;;;-5.45;100.00;99938.42;1655958;85;21214;-72
2022/02/15 05:38:27;;;;;;;;;;;;;;;-5.22;100.00;99948.06;1661552;85;20225;-67
2022/02/15 05:40:55;;;;;;;;;;;;;;;-5.03;100.00;99950.63;1662605;85;20113;-73
2022/02/15 05:43:23;;;;;;;;;;;;;;;-4.79;100.00;99951.91;1713224;83;20101;-72
2022/02/15 05:45:50;;;;;;;;;;;;;;;-4.57;100.00;99950.22;1707510;82;20158;-68
2022/02/15 05:48:18;;;;;;;;;;;;;;;-4.39;100.00;99959.41;1711620;82;21843;-69
2022/02/15 05:50:49;;;;;;;;;;;;;;;-4.19;100.00;99957.98;1729319;81;20161;-69
2022/02/15 05:53:20;;;;;;;;;;;;;;;-4.05;100.00;99954.03;1715029;81;20130;-69
2022/02/15 05:55:51;;;;;;;;;;;;;;;-3.83;100.00;99954.87;1694347;81;20226;-68
2022/02/15 05:58:17;;;;;;;;;;;;;;;-3.62;100.00;99954.57;1709463;82;20195;-70
2022/02/15 06:00:45;;;;;;;;;;;;;;;-3.37;100.00;99963.44;1725625;81;21206;-71
2022/02/15 06:05:41;;;;;;;;;;;;;;;-2.96;100.00;99959.77;1705441;81;20505;-73
2022/02/15 06:08:07;;;;;;;;;;;;;;;-2.76;100.00;99968.23;1729214;81;20561;-71
2022/02/15 06:10:37;;;;;;;;;;;;;;;-2.62;100.00;99966.82;1734893;81;20196;-72
2022/02/15 06:13:05;;;;;;;;;;;;;;;-2.39;100.00;99975.76;1722619;80;21151;-73
2022/02/15 06:15:34;;;;;;;;;;;;;;;-2.09;100.00;99961.70;1721650;83;20144;-71
2022/02/15 06:18:02;;;;;;;;;;;;;;;-1.93;100.00;99972.75;1717754;81;20166;-72
2022/02/15 06:20:30;;;;;;;;;;;;;;;-1.89;100.00;99974.05;1711121;81;20168;-72
2022/02/15 06:22:58;;;;;;;;;;;;;;;-1.73;100.00;99970.13;1731874;81;20215;-72
2022/02/15 06:25:25;;;;;;;;;;;;;;;-1.40;100.00;99971.93;1718840;82;21913;-73
2022/02/15 06:27:54;;;;;;;;;;;;;;;-1.24;100.00;99973.74;1721129;82;20224;-70
2022/02/15 06:30:39;;;;;;;;;;;;;;;-1.17;100.00;99972.91;1713053;82;20088;-72
2022/02/15 06:33:07;;;;;;;;;;;;;;;-1.02;100.00;99970.91;1680691;84;20167;-73
2022/02/15 06:35:35;;;;;;;;;;;;;;;-0.79;100.00;99973.62;1684298;83;20151;-72
2022/02/15 06:38:04;;;;;;;;;;;;;;;-0.71;100.00;99970.48;1710313;82;21181;-72
2022/02/15 06:40:31;;;;;;;;;;;;;;;-0.30;100.00;99972.11;1712766;81;20103;-73
2022/02/15 06:43:00;;;;;;;;;;;;;;;-0.04;100.00;99978.41;1720868;81;20176;-71
2022/02/15 06:45:28;;;;;;;;;;;;;;;-0.09;100.00;99974.97;1701276;81;20434;-71
2022/02/15 06:47:55;;;;;;;;;;;;;;;-0.06;100.00;99980.39;1687025;83;20210;-74
2022/02/15 06:50:22;;;;;;;;;;;;;;;-0.12;100.00;99979.75;1705985;82;22184;-72
2022/02/15 06:53:00;;;;;;;;;;;;;;;-0.08;100.00;99983.70;1675135;84;20496;-71
2022/02/15 06:55:32;;;;;;;;;;;;;;;-0.14;100.00;99981.77;1701308;83;20099;-72
2022/02/15 06:57:58;;;;;;;;;;;;;;;-0.04;100.00;99977.08;1705027;82;20502;-72
2022/02/15 07:00:25;;;;;;;;;;;;;;;0.15;100.00;99967.39;1662313;86;20226;-72
2022/02/15 07:02:52;;;;;;;;;;;;;;;0.12;98.98;99972.19;1660944;84;21203;-70
2022/02/15 07:05:19;;;;;;;;;;;;;;;0.08;96.84;99955.08;1719062;83;20487;-70
2022/02/15 07:07:49;;;;;;;;;;;;;;;0.26;97.08;99958.22;1718504;82;20179;-71
2022/02/15 07:10:18;;;;;;;;;;;;;;;0.53;95.25;99959.48;1721924;83;20157;-72
2022/02/15 07:12:49;;;;;;;;;;;;;;;0.68;90.32;99950.78;1654601;86;20141;-73
2022/02/15 07:15:20;;;;;;;;;;;;;;;0.65;92.02;99965.17;1654335;85;21170;-70
2022/02/15 07:17:48;;;;;;;;;;;;;;;0.67;86.94;99959.21;1660087;86;20165;-71
2022/02/15 07:20:19;;;;;;;;;;;;;;;0.76;86.49;99953.33;1720681;83;20146;-71
2022/02/15 07:23:06;;;;;;;;;;;;;;;0.96;86.09;99962.40;1607992;89;20221;-71
2022/02/15 07:25:42;;;;;;;;;;;;;;;1.13;83.61;99960.88;1609795;88;20483;-70
2022/02/15 07:28:15;;;;;;;;;;;;;;;1.17;80.85;99963.48;1610182;87;21106;-70
2022/02/15 07:30:43;;;;;;;;;;;;;;;1.24;77.75;99965.73;1609907;87;20167;-71
2022/02/15 07:33:12;;;;;;;;;;;;;;;1.15;78.13;99957.56;1613640;87;20484;-70
2022/02/15 07:35:39;;;;;;;;;;;;;;;1.28;79.23;99942.70;1647588;87;20425;-70
2022/02/15 07:38:07;;;;;;;;;;;;;;;1.47;79.27;99962.48;1611861;87;20198;-70
2022/02/15 07:40:33;;;;;;;;;;;;;;;1.85;75.30;99949.07;1610069;87;21756;-71
2022/02/15 07:43:00;;;;;;;;;;;;;;;1.92;74.94;99948.64;1583207;88;20521;-71
2022/02/15 07:45:28;;;;;;;;;;;;;;;1.77;71.44;99947.87;1583742;88;20466;-71
2022/02/15 07:47:55;;;;;;;;;;;;;;;1.68;70.82;99943.69;1619219;87;21149;-73
2022/02/15 07:50:23;;;;;;;;;;;;;;;1.58;69.34;99936.55;1630223;88;20251;-70
2022/02/15 07:52:54;;;;;;;;;;;;;;;1.65;71.54;99940.09;1606493;87;21115;-73
2022/02/15 07:55:21;;;;;;;;;;;;;;;2.05;70.24;99935.22;1624936;87;20179;-72
2022/02/15 07:57:49;;;;;;;;;;;;;;;2.20;68.49;99921.40;1590946;85;20170;-71
2022/02/15 08:00:21;;;;;;;;;;;;;;;2.00;67.20;99942.91;1710455;82;20180;-73
2022/02/15 08:02:51;;;;;;;;;;;;;;;2.04;68.43;99938.38;1691297;83;20122;-70
2022/02/15 08:05:23;;;;;;;;;;;;;;;2.10;66.55;99923.05;1697356;83;21141;-70
2022/02/15 08:07:54;;;;;;;;;;;;;;;2.34;67.41;99943.03;1708175;83;20214;-70
2022/02/15 08:10:23;;;;;;;;;;;;;;;2.22;65.00;99923.36;1718529;82;20103;-71
2022/02/15 08:12:55;;;;;;;;;;;;;;;2.15;66.28;99921.97;1715025;83;20086;-69
2022/02/15 08:15:28;;;;;;;;;;;;;;;2.21;66.62;99917.77;1702651;82;20133;-71
2022/02/15 08:17:56;;;;;;;;;;;;;;;2.19;65.67;99917.64;1705313;83;21150;-69
2022/02/15 08:20:23;;;;;;;;;;;;;;;2.29;67.34;99922.91;1705304;84;20146;-70
2022/02/15 08:22:52;;;;;;;;;;;;;;;2.42;67.61;99891.73;1660020;85;20140;-72
2022/02/15 08:25:19;;;;;;;;;;;;;;;2.33;67.98;99906.16;1655648;86;20139;-68
2022/02/15 08:27:46;;;;;;;;;;;;;;;2.24;67.67;99905.45;1655729;86;20208;-69
2022/02/15 08:30:18;;;;;;;;;;;;;;;2.25;69.28;99909.73;1654608;85;21254;-71
2022/02/15 08:32:46;;;;;;;;;;;;;;;2.41;67.87;99903.87;1653049;86;20189;-70
2022/02/15 08:35:17;;;;;;;;;;;;;;;2.46;68.17;99911.55;1655098;86;20507;-69
2022/02/15 08:37:44;;;;;;;;;;;;;;;2.37;70.17;99895.47;1654369;86;20201;-70
2022/02/15 08:40:14;;;;;;;;;;;;;;;2.57;70.38;99897.78;1654971;86;20174;-70
2022/02/15 08:42:42;;;;;;;;;;;;;;;2.98;70.25;99904.14;1656867;85;20129;-72
2022/02/15 08:45:11;;;;;;;;;;;;;;;3.10;68.16;99907.06;1655091;85;20177;-70
2022/02/15 08:47:39;;;;;;;;;;;;;;;2.90;67.60;99896.35;1638743;86;20211;-73
2022/02/15 08:50:08;;;;;;;;;;;;;;;3.12;70.85;99895.75;1653222;86;20226;-74
2022/02/15 08:52:36;;;;;;;;;;;;;;;3.45;67.69;99883.94;1662810;86;20345;-68
2022/02/15 08:55:07;;;;;;;;;;;;;;;3.37;67.24;99890.76;1661595;86;21152;-68
2022/02/15 08:57:34;;;;;;;;;;;;;;;3.23;67.55;99891.20;1660701;84;20211;-69
2022/02/15 09:00:01;;;;;;;;;;;;;;;2.99;70.01;99902.63;1681663;84;20161;-72
2022/02/15 09:02:27;;;;;;;;;;;;;;;3.05;69.68;99891.73;1651508;86;20209;-70
2022/02/15 09:04:54;;;;;;;;;;;;;;;3.13;70.85;99902.69;1657308;85;20146;-69
2022/02/15 09:07:20;;;;;;;;;;;;;;;3.13;69.50;99894.73;1653877;84;21168;-73
2022/02/15 09:09:49;;;;;;;;;;;;;;;3.20;70.00;99899.05;1660160;86;20193;-70
2022/02/15 09:12:16;;;;;;;;;;;;;;;3.16;71.51;99911.08;1662663;85;20176;-69
2022/02/15 09:14:43;;;;;;;;;;;;;;;3.17;69.42;99899.45;1662665;85;20153;-70
2022/02/15 09:17:09;;;;;;;;;;;;;;;3.22;71.37;99902.33;1662630;86;20150;-69
2022/02/15 09:19:36;;;;;;;;;;;;;;;3.30;72.16;99888.58;1662637;86;21144;-69
2022/02/15 09:22:04;;;;;;;;;;;;;;;3.38;70.65;99887.07;1655134;86;20127;-72
2022/02/15 09:24:30;;;;;;;;;;;;;;;3.44;70.07;99884.45;1681047;84;20474;-71
2022/02/15 09:26:57;;;;;;;;;;;;;;;3.54;70.45;99894.69;1665130;84;20258;-71
2022/02/15 09:29:24;;;;;;;;;;;;;;;3.85;69.66;99896.02;1636073;87;20159;-70
2022/02/15 09:31:51;;;;;;;;;;;;;;;4.27;68.75;99888.70;1635659;87;21900;-69
2022/02/15 09:34:22;;;;;;;;;;;;;;;4.47;67.24;99890.83;1635544;87;20141;-70
2022/02/15 09:36:46;;;;;;;;;;;;;;;4.22;67.25;99894.63;1636357;87;20119;-68
2022/02/15 09:39:12;;;;;;;;;;;;;;;4.18;65.56;99892.05;1631180;86;20140;-71
2022/02/15 09:41:39;;;;;;;;;;;;;;;3.93;66.74;99892.34;1675275;84;21260;-69
2022/02/15 09:44:06;;;;;;;;;;;;;;;3.72;67.20;99881.36;1670962;84;21528;-68
2022/02/15 09:46:34;;;;;;;;;;;;;;;3.78;67.95;99881.91;1693191;84;20089;-70
2022/02/15 09:49:02;;;;;;;;;;;;;;;3.88;67.36;99888.16;1692994;84;20148;-69
2022/02/15 09:51:29;;;;;;;;;;;;;;;3.89;67.43;99864.03;1713260;83;21001;-69
2022/02/15 09:53:56;;;;;;;;;;;;;;;3.89;67.62;99876.50;1716758;82;20175;-70
2022/02/15 09:56:23;;;;;;;;;;;;;;;3.98;67.48;99867.32;1700542;83;21156;-69
2022/02/15 09:58:49;;;;;;;;;;;;;;;4.23;68.00;99867.53;1705421;84;20153;-69
2022/02/15 10:01:16;;;;;;;;;;;;;;;4.28;67.57;99875.19;1715299;83;20106;-69
2022/02/15 10:03:58;;;;;;;;;;;;;;;4.34;67.05;99864.79;1662526;86;20179;-70
2022/02/15 10:06:33;;;;;;;;;;;;;;;4.51;64.88;99832.25;1676811;84;20148;-70
2022/02/15 10:09:01;;;;;;;;;;;;;;;4.45;65.66;99843.70;1750079;81;21134;-70
2022/02/15 10:11:41;;;;;;;;;;;;;;;4.31;64.98;99818.16;1733988;82;20083;-72
2022/02/15 10:14:09;;;;;;;;;;;;;;;4.51;66.30;99860.16;1715882;83;20125;-69
2022/02/15 10:16:47;;;;;;;;;;;;;;;4.47;64.66;99844.31;1708020;84;20165;-69
2022/02/15 10:19:34;;;;;;;;;;;;;;;4.55;65.79;99850.44;1717676;83;20121;-71
2022/02/15 10:22:03;;;;;;;;;;;;;;;4.56;65.52;99846.25;1574691;89;21068;-66
2022/02/15 10:24:31;;;;;;;;;;;;;;;4.44;65.66;99842.08;1574826;89;20248;-69
2022/02/15 10:27:04;;;;;;;;;;;;;;;4.46;66.04;99853.33;1571301;91;20201;-69
2022/02/15 10:29:33;;;;;;;;;;;;;;;4.60;64.72;99828.03;1574420;91;20472;-69
2022/02/15 10:32:02;;;;;;;;;;;;;;;4.87;65.31;99846.88;1574606;91;20161;-71
2022/02/15 10:34:29;;;;;;;;;;;;;;;5.04;64.51;99849.89;1573475;91;21149;-70
2022/02/15 10:37:06;;;;;;;;;;;;;;;5.20;63.04;99832.66;1556222;91;20492;-68
2022/02/15 10:39:41;;;;;;;;;;;;;;;5.05;62.66;99842.23;1549558;91;20543;-66
2022/02/15 10:42:10;;;;;;;;;;;;;;;4.89;62.24;99835.52;1570637;89;20234;-69
2022/02/15 10:45:02;;;;;;;;;;;;;;;4.58;63.94;99825.60;1573655;91;20172;-68
2022/02/15 10:47:30;;;;;;;;;;;;;;;4.68;64.58;99829.16;1572878;91;21084;-68
2022/02/15 10:49:59;;;;;;;;;;;;;;;4.82;63.07;99822.75;1574056;91;20212;-69
2022/02/15 10:52:27;;;;;;;;;;;;;;;4.91;62.58;99817.52;1575063;91;20483;-69
2022/02/15 10:54:53;;;;;;;;;;;;;;;5.15;63.85;99836.47;1574777;89;20158;-68
2022/02/15 10:57:21;;;;;;;;;;;;;;;5.30;61.56;99817.56;1574691;91;20199;-68
2022/02/15 10:59:49;;;;;;;;;;;;;;;5.07;61.97;99816.73;1674486;83;21844;-69
2022/02/15 11:02:26;;;;;;;;;;;;;;;4.89;63.33;99818.75;1650823;84;20500;-69
2022/02/15 11:04:55;;;;;;;;;;;;;;;5.05;62.03;99814.30;1654925;83;20177;-68
2022/02/15 11:07:23;;;;;;;;;;;;;;;4.98;62.25;99818.02;1671191;83;20283;-69
2022/02/15 11:10:14;;;;;;;;;;;;;;;4.93;62.31;99801.36;1691772;84;20162;-69
2022/02/15 11:12:55;;;;;;;;;;;;;;;4.75;63.64;99807.33;1701930;84;21108;-67
2022/02/15 11:15:27;;;;;;;;;;;;;;;5.03;61.95;99815.54;1694298;84;20168;-68
2022/02/15 11:18:00;;;;;;;;;;;;;;;4.89;61.85;99822.22;1687718;83;20126;-69
2022/02/15 11:20:29;;;;;;;;;;;;;;;4.69;62.34;99802.34;1628282;88;20259;-68
2022/02/15 11:22:58;;;;;;;;;;;;;;;4.75;62.25;99825.13;1630121;86;20098;-69
2022/02/15 11:25:34;;;;;;;;;;;;;;;4.73;62.38;99830.16;1653640;86;21142;-67
2022/02/15 11:28:08;;;;;;;;;;;;;;;4.98;62.23;99824.16;1646143;86;20165;-68
2022/02/15 11:30:54;;;;;;;;;;;;;;;5.10;62.06;99818.47;1636956;85;20530;-69
2022/02/15 11:33:33;;;;;;;;;;;;;;;5.13;60.88;99818.56;1635449;86;20488;-70
2022/02/15 11:36:07;;;;;;;;;;;;;;;5.19;59.95;99818.22;1640304;87;20508;-68
2022/02/15 11:38:35;;;;;;;;;;;;;;;5.05;60.65;99812.97;1647657;85;21114;-70
2022/02/15 11:41:07;;;;;;;;;;;;;;;5.13;61.24;99823.36;1646811;85;20215;-69
2022/02/15 11:43:36;;;;;;;;;;;;;;;5.16;60.37;99798.98;1617198;87;20102;-69
2022/02/15 11:46:03;;;;;;;;;;;;;;;5.21;61.18;99824.16;1628478;86;20162;-71
2022/02/15 11:48:40;;;;;;;;;;;;;;;5.34;60.52;99818.27;1650540;84;20172;-69
2022/02/15 11:51:18;;;;;;;;;;;;;;;5.40;60.66;99804.61;1647777;85;21106;-70
2022/02/15 11:53:46;;;;;;;;;;;;;;;5.44;60.48;99800.50;1635084;85;20141;-69
2022/02/15 11:56:17;;;;;;;;;;;;;;;5.58;60.20;99798.55;1633102;85;20146;-69
2022/02/15 11:58:46;;;;;;;;;;;;;;;5.87;60.13;99801.63;1644935;85;20470;-70
2022/02/15 12:01:29;;;;;;;;;;;;;;;5.96;60.12;99797.19;1623633;86;20502;-69
2022/02/15 12:03:57;;;;;;;;;;;;;;;5.68;59.03;99776.77;1593165;87;21164;-68
2022/02/15 12:06:36;;;;;;;;;;;;;;;5.33;60.57;99780.67;1631427;85;20104;-70
2022/02/15 12:09:03;;;;;;;;;;;;;;;5.31;60.65;99769.94;1645067;85;20440;-70
2022/02/15 12:11:35;;;;;;;;;;;;;;;5.30;60.22;99776.31;1643928;86;20163;-70
2022/02/15 12:14:08;;;;;;;;;;;;;;;5.25;60.75;99756.98;1658009;86;20230;-70
2022/02/15 12:16:46;;;;;;;;;;;;;;;5.16;60.64;99768.38;1663072;85;21725;-70
2022/02/15 12:19:40;;;;;;;;;;;;;;;5.10;60.63;99765.26;1691435;85;20178;-69
2022/02/15 12:22:17;;;;;;;;;;;;;;;5.10;61.13;99761.78;1628924;88;20148;-69
2022/02/15 12:24:51;;;;;;;;;;;;;;;5.19;61.24;99758.34;1617094;87;20493;-69
2022/02/15 12:27:20;;;;;;;;;;;;;;;5.10;60.86;99744.49;1615393;88;20114;-69
2022/02/15 12:29:51;;;;;;;;;;;;;;;5.15;61.35;99753.98;1614602;88;21172;-69
2022/02/15 12:32:23;;;;;;;;;;;;;;;4.99;62.42;99757.13;1633937;86;20220;-68
2022/02/15 12:34:51;;;;;;;;;;;;;;;4.88;63.50;99751.45;1639015;87;20191;-68
2022/02/15 12:37:18;;;;;;;;;;;;;;;4.91;63.09;99747.55;1639629;87;20422;-66
2022/02/15 12:39:45;;;;;;;;;;;;;;;5.05;63.25;99758.43;1639507;87;20173;-69
2022/02/15 12:42:13;;;;;;;;;;;;;;;4.98;62.85;99748.33;1639615;87;21175;-69
2022/02/15 12:44:40;;;;;;;;;;;;;;;5.03;63.41;99752.50;1638974;86;20135;-69
2022/02/15 12:47:08;;;;;;;;;;;;;;;4.97;63.37;99752.52;1639013;86;20484;-68
2022/02/15 12:49:35;;;;;;;;;;;;;;;4.98;63.12;99747.52;1639578;87;20148;-69
2022/02/15 12:52:02;;;;;;;;;;;;;;;4.89;63.42;99746.41;1639544;87;20417;-70
2022/02/15 12:54:29;;;;;;;;;;;;;;;4.91;62.20;99745.70;1639804;87;21580;-69
2022/02/15 12:56:55;;;;;;;;;;;;;;;4.97;62.64;99744.02;1639601;87;20107;-68
2022/02/15 12:59:25;;;;;;;;;;;;;;;5.14;62.59;99745.19;1639368;86;20706;-70
2022/02/15 13:01:58;;;;;;;;;;;;;;;5.04;62.63;99735.50;1604250;88;20173;-69
2022/02/15 13:04:26;;;;;;;;;;;;;;;4.98;63.13;99754.98;1615065;89;20499;-69
2022/02/15 13:06:53;;;;;;;;;;;;;;;5.09;63.67;99748.97;1638679;87;21163;-69